sensor_id;sensor_type;location;lat;lon;timestamp;P1;durP1;ratioP1;P2;durP2;ratioP2
9972;SDS011;5027;53.560;10.062;2024-02-28T00:00:43;9.90;;;9.00;;
9972;SDS011;5027;53.560;10.062;2024-02-28T00:03:09;9.97;;;8.97;;
9972;SDS011;5027;53.560;10.062;2024-02-28T00:05:36;10.03;;;9.13;;
9972;SDS011;5027;53.560;10.062;2024-02-28T00:08:03;9.90;;;9.00;;
9972;SDS011;5027;53.560;10.062;2024-02-28T00:10:31;10.40;;;9.43;;
9972;SDS011;5027;53.560;10.062;2024-02-28T00:12:59;12.53;;;11.43;;
9972;SDS011;5027;53.560;10.062;2024-02-28T00:15:26;14.10;;;12.80;;
9972;SDS011;5027;53.560;10.062;2024-02-28T00:17:53;14.80;;;10.10;;
9972;SDS011;5027;53.560;10.062;2024-02-28T00:20:21;10.50;;;9.60;;
9972;SDS011;5027;53.560;10.062;2024-02-28T00:22:47;12.90;;;11.67;;
9972;SDS011;5027;53.560;10.062;2024-02-28T00:25:14;14.60;;;13.20;;
9972;SDS011;5027;53.560;10.062;2024-02-28T00:27:42;17.30;;;15.60;;
9972;SDS011;5027;53.560;10.062;2024-02-28T00:30:08;16.67;;;14.97;;
9972;SDS011;5027;53.560;10.062;2024-02-28T00:32:35;17.77;;;16.27;;
9972;SDS011;5027;53.560;10.062;2024-02-28T00:35:02;17.53;;;15.93;;
9972;SDS011;5027;53.560;10.062;2024-02-28T00:37:30;19.97;;;18.07;;
9972;SDS011;5027;53.560;10.062;2024-02-28T00:39:57;21.53;;;19.43;;
9972;SDS011;5027;53.560;10.062;2024-02-28T00:42:23;20.90;;;19.00;;
9972;SDS011;5027;53.560;10.062;2024-02-28T00:44:50;22.93;;;20.93;;
9972;SDS011;5027;53.560;10.062;2024-02-28T00:47:17;21.17;;;19.23;;
9972;SDS011;5027;53.560;10.062;2024-02-28T00:49:44;21.03;;;19.13;;
9972;SDS011;5027;53.560;10.062;2024-02-28T00:52:10;22.30;;;20.30;;
9972;SDS011;5027;53.560;10.062;2024-02-28T00:54:37;22.63;;;20.63;;
9972;SDS011;5027;53.560;10.062;2024-02-28T00:57:04;21.57;;;19.67;;
9972;SDS011;5027;53.560;10.062;2024-02-28T00:59:31;22.43;;;20.23;;
9972;SDS011;5027;53.560;10.062;2024-02-28T01:01:57;23.10;;;20.97;;
9972;SDS011;5027;53.560;10.062;2024-02-28T01:04:24;21.70;;;19.70;;
9972;SDS011;5027;53.560;10.062;2024-02-28T01:06:50;22.37;;;20.17;;
9972;SDS011;5027;53.560;10.062;2024-02-28T01:09:17;21.57;;;19.67;;
9972;SDS011;5027;53.560;10.062;2024-02-28T01:11:45;20.67;;;18.83;;
9972;SDS011;5027;53.560;10.062;2024-02-28T01:14:12;22.13;;;19.83;;
9972;SDS011;5027;53.560;10.062;2024-02-28T01:16:39;21.83;;;19.77;;
9972;SDS011;5027;53.560;10.062;2024-02-28T01:19:06;21.80;;;19.80;;
9972;SDS011;5027;53.560;10.062;2024-02-28T01:21:33;19.60;;;17.80;;
9972;SDS011;5027;53.560;10.062;2024-02-28T01:24:00;19.47;;;17.77;;
9972;SDS011;5027;53.560;10.062;2024-02-28T01:26:27;21.20;;;19.30;;
9972;SDS011;5027;53.560;10.062;2024-02-28T01:28:53;21.87;;;19.70;;
9972;SDS011;5027;53.560;10.062;2024-02-28T01:31:20;23.43;;;21.20;;
9972;SDS011;5027;53.560;10.062;2024-02-28T01:33:47;25.03;;;22.63;;
9972;SDS011;5027;53.560;10.062;2024-02-28T01:36:14;25.23;;;22.90;;
9972;SDS011;5027;53.560;10.062;2024-02-28T01:38:41;24.47;;;22.17;;
9972;SDS011;5027;53.560;10.062;2024-02-28T01:41:07;26.30;;;23.77;;
9972;SDS011;5027;53.560;10.062;2024-02-28T01:43:34;25.23;;;22.83;;
9972;SDS011;5027;53.560;10.062;2024-02-28T01:46:01;23.63;;;21.37;;
9972;SDS011;5027;53.560;10.062;2024-02-28T01:48:35;24.23;;;21.97;;
9972;SDS011;5027;53.560;10.062;2024-02-28T01:51:02;25.73;;;23.17;;
9972;SDS011;5027;53.560;10.062;2024-02-28T01:53:29;26.07;;;23.63;;
9972;SDS011;5027;53.560;10.062;2024-02-28T01:55:55;25.50;;;23.10;;
9972;SDS011;5027;53.560;10.062;2024-02-28T01:58:23;25.63;;;23.17;;
9972;SDS011;5027;53.560;10.062;2024-02-28T02:00:50;26.43;;;23.83;;
9972;SDS011;5027;53.560;10.062;2024-02-28T02:03:18;26.20;;;23.70;;
9972;SDS011;5027;53.560;10.062;2024-02-28T02:05:44;25.33;;;22.97;;
9972;SDS011;5027;53.560;10.062;2024-02-28T02:08:11;25.40;;;23.00;;
9972;SDS011;5027;53.560;10.062;2024-02-28T02:10:38;26.63;;;23.93;;
9972;SDS011;5027;53.560;10.062;2024-02-28T02:13:05;26.47;;;23.97;;
9972;SDS011;5027;53.560;10.062;2024-02-28T02:15:32;27.17;;;24.47;;
9972;SDS011;5027;53.560;10.062;2024-02-28T02:17:59;25.77;;;23.33;;
9972;SDS011;5027;53.560;10.062;2024-02-28T02:20:26;26.47;;;23.77;;
9972;SDS011;5027;53.560;10.062;2024-02-28T02:22:58;25.40;;;22.77;;
9972;SDS011;5027;53.560;10.062;2024-02-28T02:25:25;26.00;;;23.50;;
9972;SDS011;5027;53.560;10.062;2024-02-28T02:27:51;26.97;;;24.17;;
9972;SDS011;5027;53.560;10.062;2024-02-28T02:30:18;26.30;;;23.80;;
9972;SDS011;5027;53.560;10.062;2024-02-28T02:32:45;27.83;;;25.13;;
9972;SDS011;5027;53.560;10.062;2024-02-28T02:35:12;27.67;;;24.47;;
9972;SDS011;5027;53.560;10.062;2024-02-28T02:37:42;25.90;;;23.37;;
9972;SDS011;5027;53.560;10.062;2024-02-28T02:40:12;27.07;;;24.23;;
9972;SDS011;5027;53.560;10.062;2024-02-28T02:42:38;28.27;;;25.33;;
9972;SDS011;5027;53.560;10.062;2024-02-28T02:45:05;28.10;;;25.30;;
9972;SDS011;5027;53.560;10.062;2024-02-28T02:47:32;28.27;;;25.53;;
9972;SDS011;5027;53.560;10.062;2024-02-28T02:49:59;26.40;;;23.80;;
9972;SDS011;5027;53.560;10.062;2024-02-28T02:52:26;26.30;;;23.60;;
9972;SDS011;5027;53.560;10.062;2024-02-28T02:54:52;26.83;;;24.23;;
9972;SDS011;5027;53.560;10.062;2024-02-28T02:57:19;29.13;;;26.03;;
9972;SDS011;5027;53.560;10.062;2024-02-28T02:59:46;29.33;;;26.30;;
9972;SDS011;5027;53.560;10.062;2024-02-28T03:02:13;28.30;;;25.40;;
9972;SDS011;5027;53.560;10.062;2024-02-28T03:04:40;28.27;;;25.43;;
9972;SDS011;5027;53.560;10.062;2024-02-28T03:07:06;29.37;;;26.07;;
9972;SDS011;5027;53.560;10.062;2024-02-28T03:09:33;27.47;;;24.67;;
9972;SDS011;5027;53.560;10.062;2024-02-28T03:12:00;29.07;;;26.07;;
9972;SDS011;5027;53.560;10.062;2024-02-28T03:14:27;30.10;;;26.63;;
9972;SDS011;5027;53.560;10.062;2024-02-28T03:16:53;30.30;;;27.20;;
9972;SDS011;5027;53.560;10.062;2024-02-28T03:19:20;28.30;;;25.37;;
9972;SDS011;5027;53.560;10.062;2024-02-28T03:21:47;29.20;;;26.13;;
9972;SDS011;5027;53.560;10.062;2024-02-28T03:24:14;29.50;;;26.50;;
9972;SDS011;5027;53.560;10.062;2024-02-28T03:26:41;28.90;;;25.90;;
9972;SDS011;5027;53.560;10.062;2024-02-28T03:29:08;27.80;;;24.93;;
9972;SDS011;5027;53.560;10.062;2024-02-28T03:31:35;27.07;;;24.27;;
9972;SDS011;5027;53.560;10.062;2024-02-28T03:34:02;27.33;;;24.33;;
9972;SDS011;5027;53.560;10.062;2024-02-28T03:36:28;27.00;;;24.20;;
9972;SDS011;5027;53.560;10.062;2024-02-28T03:38:55;26.30;;;23.60;;
9972;SDS011;5027;53.560;10.062;2024-02-28T03:41:22;28.00;;;25.07;;
9972;SDS011;5027;53.560;10.062;2024-02-28T03:43:49;26.67;;;23.93;;
9972;SDS011;5027;53.560;10.062;2024-02-28T03:46:15;26.90;;;24.13;;
9972;SDS011;5027;53.560;10.062;2024-02-28T03:48:42;26.27;;;23.57;;
9972;SDS011;5027;53.560;10.062;2024-02-28T03:51:09;26.03;;;23.33;;
9972;SDS011;5027;53.560;10.062;2024-02-28T03:53:35;27.07;;;24.27;;
9972;SDS011;5027;53.560;10.062;2024-02-28T03:56:02;27.03;;;24.23;;
9972;SDS011;5027;53.560;10.062;2024-02-28T03:58:29;26.57;;;23.87;;
9972;SDS011;5027;53.560;10.062;2024-02-28T04:00:56;28.47;;;25.47;;
9972;SDS011;5027;53.560;10.062;2024-02-28T04:03:23;27.43;;;24.27;;
9972;SDS011;5027;53.560;10.062;2024-02-28T04:05:49;28.23;;;25.33;;
9972;SDS011;5027;53.560;10.062;2024-02-28T04:08:16;26.43;;;23.37;;
9972;SDS011;5027;53.560;10.062;2024-02-28T04:10:43;25.87;;;23.17;;
9972;SDS011;5027;53.560;10.062;2024-02-28T04:13:10;25.67;;;22.87;;
9972;SDS011;5027;53.560;10.062;2024-02-28T04:15:36;27.73;;;23.87;;
9972;SDS011;5027;53.560;10.062;2024-02-28T04:18:04;28.53;;;24.07;;
9972;SDS011;5027;53.560;10.062;2024-02-28T04:20:31;27.50;;;24.63;;
9972;SDS011;5027;53.560;10.062;2024-02-28T04:22:58;26.00;;;23.30;;
9972;SDS011;5027;53.560;10.062;2024-02-28T04:25:25;27.30;;;24.50;;
9972;SDS011;5027;53.560;10.062;2024-02-28T04:27:51;26.73;;;23.97;;
9972;SDS011;5027;53.560;10.062;2024-02-28T04:30:18;26.70;;;23.83;;
9972;SDS011;5027;53.560;10.062;2024-02-28T04:32:45;25.50;;;22.83;;
9972;SDS011;5027;53.560;10.062;2024-02-28T04:35:12;27.77;;;24.77;;
9972;SDS011;5027;53.560;10.062;2024-02-28T04:37:41;25.03;;;22.37;;
9972;SDS011;5027;53.560;10.062;2024-02-28T04:40:08;26.53;;;23.73;;
9972;SDS011;5027;53.560;10.062;2024-02-28T04:42:35;26.07;;;23.30;;
9972;SDS011;5027;53.560;10.062;2024-02-28T04:45:02;25.23;;;22.63;;
9972;SDS011;5027;53.560;10.062;2024-02-28T04:47:29;25.63;;;22.93;;
9972;SDS011;5027;53.560;10.062;2024-02-28T04:50:09;24.53;;;21.93;;
9972;SDS011;5027;53.560;10.062;2024-02-28T04:52:36;24.97;;;22.30;;
9972;SDS011;5027;53.560;10.062;2024-02-28T04:55:02;26.10;;;23.40;;
9972;SDS011;5027;53.560;10.062;2024-02-28T04:57:30;25.33;;;22.63;;
9972;SDS011;5027;53.560;10.062;2024-02-28T04:59:57;26.47;;;23.47;;
9972;SDS011;5027;53.560;10.062;2024-02-28T05:02:26;27.67;;;22.33;;
9972;SDS011;5027;53.560;10.062;2024-02-28T05:04:52;27.30;;;24.40;;
9972;SDS011;5027;53.560;10.062;2024-02-28T05:07:19;27.43;;;22.70;;
9972;SDS011;5027;53.560;10.062;2024-02-28T05:09:46;25.13;;;22.57;;
9972;SDS011;5027;53.560;10.062;2024-02-28T05:12:13;25.77;;;23.00;;
9972;SDS011;5027;53.560;10.062;2024-02-28T05:14:39;25.30;;;22.60;;
9972;SDS011;5027;53.560;10.062;2024-02-28T05:17:06;26.53;;;23.23;;
9972;SDS011;5027;53.560;10.062;2024-02-28T05:19:33;28.67;;;23.03;;
9972;SDS011;5027;53.560;10.062;2024-02-28T05:22:00;26.90;;;23.93;;
9972;SDS011;5027;53.560;10.062;2024-02-28T05:24:27;26.27;;;22.10;;
9972;SDS011;5027;53.560;10.062;2024-02-28T05:26:54;25.33;;;22.60;;
9972;SDS011;5027;53.560;10.062;2024-02-28T05:29:21;25.63;;;22.93;;
9972;SDS011;5027;53.560;10.062;2024-02-28T05:31:47;26.70;;;23.90;;
9972;SDS011;5027;53.560;10.062;2024-02-28T05:34:14;26.90;;;22.47;;
9972;SDS011;5027;53.560;10.062;2024-02-28T05:36:42;24.90;;;22.30;;
9972;SDS011;5027;53.560;10.062;2024-02-28T05:39:09;24.63;;;22.13;;
9972;SDS011;5027;53.560;10.062;2024-02-28T05:41:36;25.17;;;22.47;;
9972;SDS011;5027;53.560;10.062;2024-02-28T05:44:03;24.93;;;22.30;;
9972;SDS011;5027;53.560;10.062;2024-02-28T05:46:29;25.40;;;22.63;;
9972;SDS011;5027;53.560;10.062;2024-02-28T05:48:56;23.27;;;20.87;;
9972;SDS011;5027;53.560;10.062;2024-02-28T05:51:23;24.90;;;22.37;;
9972;SDS011;5027;53.560;10.062;2024-02-28T05:53:52;22.07;;;19.77;;
9972;SDS011;5027;53.560;10.062;2024-02-28T05:56:19;23.83;;;21.23;;
9972;SDS011;5027;53.560;10.062;2024-02-28T05:58:46;22.83;;;20.43;;
9972;SDS011;5027;53.560;10.062;2024-02-28T06:01:17;22.43;;;20.13;;
9972;SDS011;5027;53.560;10.062;2024-02-28T06:03:45;20.83;;;18.67;;
9972;SDS011;5027;53.560;10.062;2024-02-28T06:06:13;21.50;;;18.43;;
9972;SDS011;5027;53.560;10.062;2024-02-28T06:08:41;19.13;;;17.23;;
9972;SDS011;5027;53.560;10.062;2024-02-28T06:11:09;18.87;;;16.97;;
9972;SDS011;5027;53.560;10.062;2024-02-28T06:13:36;19.20;;;17.10;;
9972;SDS011;5027;53.560;10.062;2024-02-28T06:16:03;18.10;;;16.20;;
9972;SDS011;5027;53.560;10.062;2024-02-28T06:18:30;18.33;;;16.53;;
9972;SDS011;5027;53.560;10.062;2024-02-28T06:20:59;19.67;;;17.57;;
9972;SDS011;5027;53.560;10.062;2024-02-28T06:23:27;17.43;;;15.57;;
9972;SDS011;5027;53.560;10.062;2024-02-28T06:25:56;18.10;;;15.63;;
9972;SDS011;5027;53.560;10.062;2024-02-28T06:28:23;16.77;;;14.93;;
9972;SDS011;5027;53.560;10.062;2024-02-28T06:30:50;17.70;;;14.80;;
9972;SDS011;5027;53.560;10.062;2024-02-28T06:33:17;16.90;;;14.93;;
9972;SDS011;5027;53.560;10.062;2024-02-28T06:35:45;19.03;;;15.50;;
9972;SDS011;5027;53.560;10.062;2024-02-28T06:38:11;18.40;;;16.40;;
9972;SDS011;5027;53.560;10.062;2024-02-28T06:40:38;17.27;;;15.07;;
9972;SDS011;5027;53.560;10.062;2024-02-28T06:43:05;18.00;;;15.13;;
9972;SDS011;5027;53.560;10.062;2024-02-28T06:45:32;18.10;;;16.20;;
9972;SDS011;5027;53.560;10.062;2024-02-28T06:47:58;15.97;;;14.37;;
9972;SDS011;5027;53.560;10.062;2024-02-28T06:50:25;18.37;;;14.77;;
9972;SDS011;5027;53.560;10.062;2024-02-28T06:52:52;16.83;;;14.73;;
9972;SDS011;5027;53.560;10.062;2024-02-28T06:55:20;16.50;;;14.03;;
9972;SDS011;5027;53.560;10.062;2024-02-28T06:57:47;16.47;;;14.73;;
9972;SDS011;5027;53.560;10.062;2024-02-28T07:00:14;18.77;;;16.73;;
9972;SDS011;5027;53.560;10.062;2024-02-28T07:02:42;15.73;;;14.20;;
9972;SDS011;5027;53.560;10.062;2024-02-28T07:05:09;15.83;;;14.13;;
9972;SDS011;5027;53.560;10.062;2024-02-28T07:07:36;17.50;;;15.70;;
9972;SDS011;5027;53.560;10.062;2024-02-28T07:10:03;17.03;;;15.27;;
9972;SDS011;5027;53.560;10.062;2024-02-28T07:12:31;16.97;;;14.67;;
9972;SDS011;5027;53.560;10.062;2024-02-28T07:14:58;16.23;;;14.17;;
9972;SDS011;5027;53.560;10.062;2024-02-28T07:17:25;18.73;;;14.80;;
9972;SDS011;5027;53.560;10.062;2024-02-28T07:19:52;16.90;;;15.07;;
9972;SDS011;5027;53.560;10.062;2024-02-28T07:22:18;17.60;;;14.53;;
9972;SDS011;5027;53.560;10.062;2024-02-28T07:24:45;16.13;;;14.50;;
9972;SDS011;5027;53.560;10.062;2024-02-28T07:27:12;17.37;;;14.43;;
9972;SDS011;5027;53.560;10.062;2024-02-28T07:29:39;15.97;;;14.27;;
9972;SDS011;5027;53.560;10.062;2024-02-28T07:32:06;15.67;;;14.07;;
9972;SDS011;5027;53.560;10.062;2024-02-28T07:34:32;15.50;;;13.90;;
9972;SDS011;5027;53.560;10.062;2024-02-28T07:37:00;15.47;;;13.93;;
9972;SDS011;5027;53.560;10.062;2024-02-28T07:39:27;19.10;;;15.60;;
9972;SDS011;5027;53.560;10.062;2024-02-28T07:41:53;15.40;;;13.90;;
9972;SDS011;5027;53.560;10.062;2024-02-28T07:44:22;17.53;;;15.73;;
9972;SDS011;5027;53.560;10.062;2024-02-28T07:46:48;20.33;;;17.00;;
9972;SDS011;5027;53.560;10.062;2024-02-28T07:49:17;17.17;;;15.47;;
9972;SDS011;5027;53.560;10.062;2024-02-28T07:51:44;17.27;;;15.47;;
9972;SDS011;5027;53.560;10.062;2024-02-28T07:54:12;17.47;;;15.70;;
9972;SDS011;5027;53.560;10.062;2024-02-28T07:56:38;17.50;;;15.00;;
9972;SDS011;5027;53.560;10.062;2024-02-28T07:59:05;17.67;;;15.80;;
9972;SDS011;5027;53.560;10.062;2024-02-28T08:01:32;19.40;;;15.33;;
9972;SDS011;5027;53.560;10.062;2024-02-28T08:04:00;16.33;;;14.63;;
9972;SDS011;5027;53.560;10.062;2024-02-28T08:06:28;21.13;;;16.47;;
9972;SDS011;5027;53.560;10.062;2024-02-28T08:08:55;19.97;;;15.67;;
9972;SDS011;5027;53.560;10.062;2024-02-28T08:11:22;17.87;;;14.53;;
9972;SDS011;5027;53.560;10.062;2024-02-28T08:13:50;20.47;;;16.40;;
9972;SDS011;5027;53.560;10.062;2024-02-28T08:16:17;17.50;;;15.70;;
9972;SDS011;5027;53.560;10.062;2024-02-28T08:18:43;17.77;;;15.97;;
9972;SDS011;5027;53.560;10.062;2024-02-28T08:21:11;18.50;;;16.27;;
9972;SDS011;5027;53.560;10.062;2024-02-28T08:23:38;17.63;;;15.73;;
9972;SDS011;5027;53.560;10.062;2024-02-28T08:26:05;17.63;;;15.83;;
9972;SDS011;5027;53.560;10.062;2024-02-28T08:28:31;20.23;;;16.07;;
9972;SDS011;5027;53.560;10.062;2024-02-28T08:30:58;18.83;;;16.93;;
9972;SDS011;5027;53.560;10.062;2024-02-28T08:33:25;19.83;;;16.37;;
9972;SDS011;5027;53.560;10.062;2024-02-28T08:35:52;21.57;;;18.83;;
9972;SDS011;5027;53.560;10.062;2024-02-28T08:38:20;23.37;;;19.33;;
9972;SDS011;5027;53.560;10.062;2024-02-28T08:40:46;21.53;;;17.73;;
9972;SDS011;5027;53.560;10.062;2024-02-28T08:43:13;21.60;;;19.00;;
9972;SDS011;5027;53.560;10.062;2024-02-28T08:45:40;22.33;;;19.93;;
9972;SDS011;5027;53.560;10.062;2024-02-28T08:48:07;25.53;;;20.17;;
9972;SDS011;5027;53.560;10.062;2024-02-28T08:50:34;22.80;;;20.50;;
9972;SDS011;5027;53.560;10.062;2024-02-28T08:53:01;22.93;;;20.23;;
9972;SDS011;5027;53.560;10.062;2024-02-28T08:55:29;24.90;;;20.03;;
9972;SDS011;5027;53.560;10.062;2024-02-28T08:57:57;22.27;;;19.90;;
9972;SDS011;5027;53.560;10.062;2024-02-28T09:00:24;22.80;;;20.40;;
9972;SDS011;5027;53.560;10.062;2024-02-28T09:02:51;29.37;;;21.77;;
9972;SDS011;5027;53.560;10.062;2024-02-28T09:05:18;23.13;;;20.80;;
9972;SDS011;5027;53.560;10.062;2024-02-28T09:07:45;24.40;;;21.90;;
9972;SDS011;5027;53.560;10.062;2024-02-28T09:10:17;26.77;;;23.10;;
9972;SDS011;5027;53.560;10.062;2024-02-28T09:12:50;25.53;;;21.77;;
9972;SDS011;5027;53.560;10.062;2024-02-28T09:15:17;27.83;;;23.53;;
9972;SDS011;5027;53.560;10.062;2024-02-28T09:17:44;24.83;;;22.23;;
9972;SDS011;5027;53.560;10.062;2024-02-28T09:20:11;24.53;;;21.97;;
9972;SDS011;5027;53.560;10.062;2024-02-28T09:22:38;24.90;;;22.33;;
9972;SDS011;5027;53.560;10.062;2024-02-28T09:25:06;27.03;;;23.87;;
9972;SDS011;5027;53.560;10.062;2024-02-28T09:27:35;26.93;;;24.10;;
9972;SDS011;5027;53.560;10.062;2024-02-28T09:30:02;28.20;;;24.87;;
9972;SDS011;5027;53.560;10.062;2024-02-28T09:32:30;27.03;;;24.13;;
9972;SDS011;5027;53.560;10.062;2024-02-28T09:34:56;26.73;;;23.60;;
9972;SDS011;5027;53.560;10.062;2024-02-28T09:37:23;27.63;;;24.47;;
9972;SDS011;5027;53.560;10.062;2024-02-28T09:39:51;29.10;;;25.60;;
9972;SDS011;5027;53.560;10.062;2024-02-28T09:42:18;27.07;;;24.27;;
9972;SDS011;5027;53.560;10.062;2024-02-28T09:44:46;27.87;;;23.73;;
9972;SDS011;5027;53.560;10.062;2024-02-28T09:47:14;24.47;;;21.97;;
9972;SDS011;5027;53.560;10.062;2024-02-28T09:49:41;25.87;;;23.03;;
9972;SDS011;5027;53.560;10.062;2024-02-28T09:52:09;24.90;;;22.37;;
9972;SDS011;5027;53.560;10.062;2024-02-28T09:54:36;25.47;;;22.83;;
9972;SDS011;5027;53.560;10.062;2024-02-28T09:57:03;24.60;;;21.97;;
9972;SDS011;5027;53.560;10.062;2024-02-28T09:59:30;24.47;;;21.87;;
9972;SDS011;5027;53.560;10.062;2024-02-28T10:02:13;25.03;;;22.10;;
9972;SDS011;5027;53.560;10.062;2024-02-28T10:04:43;24.67;;;22.07;;
9972;SDS011;5027;53.560;10.062;2024-02-28T10:07:10;23.47;;;20.97;;
9972;SDS011;5027;53.560;10.062;2024-02-28T10:09:40;28.77;;;21.20;;
9972;SDS011;5027;53.560;10.062;2024-02-28T10:12:08;21.57;;;19.37;;
9972;SDS011;5027;53.560;10.062;2024-02-28T10:14:35;24.77;;;18.80;;
9972;SDS011;5027;53.560;10.062;2024-02-28T10:17:02;20.20;;;17.50;;
9972;SDS011;5027;53.560;10.062;2024-02-28T10:19:29;18.23;;;16.17;;
9972;SDS011;5027;53.560;10.062;2024-02-28T10:21:56;20.80;;;17.87;;
9972;SDS011;5027;53.560;10.062;2024-02-28T10:24:25;20.07;;;17.20;;
9972;SDS011;5027;53.560;10.062;2024-02-28T10:26:52;19.33;;;17.17;;
9972;SDS011;5027;53.560;10.062;2024-02-28T10:29:22;19.33;;;17.37;;
9972;SDS011;5027;53.560;10.062;2024-02-28T10:31:57;19.60;;;17.50;;
9972;SDS011;5027;53.560;10.062;2024-02-28T10:34:24;21.93;;;18.57;;
9972;SDS011;5027;53.560;10.062;2024-02-28T10:36:51;20.63;;;17.20;;
9972;SDS011;5027;53.560;10.062;2024-02-28T10:39:18;19.43;;;17.33;;
9972;SDS011;5027;53.560;10.062;2024-02-28T10:41:48;20.60;;;18.50;;
9972;SDS011;5027;53.560;10.062;2024-02-28T10:44:16;20.47;;;18.27;;
9972;SDS011;5027;53.560;10.062;2024-02-28T10:46:43;22.00;;;17.33;;
9972;SDS011;5027;53.560;10.062;2024-02-28T10:49:15;22.03;;;17.63;;
9972;SDS011;5027;53.560;10.062;2024-02-28T10:51:42;20.47;;;17.90;;
9972;SDS011;5027;53.560;10.062;2024-02-28T10:54:12;20.20;;;17.70;;
9972;SDS011;5027;53.560;10.062;2024-02-28T10:56:41;19.87;;;17.77;;
9972;SDS011;5027;53.560;10.062;2024-02-28T10:59:10;21.07;;;18.87;;
9972;SDS011;5027;53.560;10.062;2024-02-28T11:01:39;20.53;;;18.23;;
9972;SDS011;5027;53.560;10.062;2024-02-28T11:04:11;21.83;;;18.43;;
9972;SDS011;5027;53.560;10.062;2024-02-28T11:06:49;23.10;;;18.70;;
9972;SDS011;5027;53.560;10.062;2024-02-28T11:09:21;13.10;;;11.67;;
9972;SDS011;5027;53.560;10.062;2024-02-28T11:11:52;18.87;;;16.83;;
9972;SDS011;5027;53.560;10.062;2024-02-28T11:14:19;22.37;;;18.47;;
9972;SDS011;5027;53.560;10.062;2024-02-28T11:16:59;21.53;;;18.13;;
9972;SDS011;5027;53.560;10.062;2024-02-28T11:19:27;20.67;;;16.90;;
9972;SDS011;5027;53.560;10.062;2024-02-28T11:21:56;19.73;;;15.73;;
9972;SDS011;5027;53.560;10.062;2024-02-28T11:24:24;18.03;;;16.00;;
9972;SDS011;5027;53.560;10.062;2024-02-28T11:26:52;21.13;;;16.03;;
9972;SDS011;5027;53.560;10.062;2024-02-28T11:29:23;18.77;;;15.97;;
9972;SDS011;5027;53.560;10.062;2024-02-28T11:31:51;18.30;;;16.30;;
9972;SDS011;5027;53.560;10.062;2024-02-28T11:34:19;21.37;;;17.77;;
9972;SDS011;5027;53.560;10.062;2024-02-28T11:36:47;19.53;;;17.30;;
9972;SDS011;5027;53.560;10.062;2024-02-28T11:39:15;21.63;;;17.57;;
9972;SDS011;5027;53.560;10.062;2024-02-28T11:41:47;18.47;;;16.53;;
9972;SDS011;5027;53.560;10.062;2024-02-28T11:44:15;19.07;;;17.07;;
9972;SDS011;5027;53.560;10.062;2024-02-28T11:46:46;24.67;;;20.30;;
9972;SDS011;5027;53.560;10.062;2024-02-28T11:49:14;20.43;;;15.67;;
9972;SDS011;5027;53.560;10.062;2024-02-28T11:51:41;17.77;;;14.70;;
9972;SDS011;5027;53.560;10.062;2024-02-28T11:54:09;18.80;;;15.37;;
9972;SDS011;5027;53.560;10.062;2024-02-28T11:56:38;17.07;;;15.27;;
9972;SDS011;5027;53.560;10.062;2024-02-28T11:59:05;19.73;;;16.40;;
9972;SDS011;5027;53.560;10.062;2024-02-28T12:01:33;19.93;;;16.00;;
9972;SDS011;5027;53.560;10.062;2024-02-28T12:04:03;19.47;;;16.97;;
9972;SDS011;5027;53.560;10.062;2024-02-28T12:06:34;22.57;;;16.70;;
9972;SDS011;5027;53.560;10.062;2024-02-28T12:09:03;21.43;;;17.87;;
9972;SDS011;5027;53.560;10.062;2024-02-28T12:11:35;22.97;;;19.03;;
9972;SDS011;5027;53.560;10.062;2024-02-28T12:14:03;20.37;;;17.53;;
9972;SDS011;5027;53.560;10.062;2024-02-28T12:16:33;18.47;;;15.67;;
9972;SDS011;5027;53.560;10.062;2024-02-28T12:18:59;21.60;;;18.57;;
9972;SDS011;5027;53.560;10.062;2024-02-28T12:21:26;20.70;;;17.47;;
9972;SDS011;5027;53.560;10.062;2024-02-28T12:23:53;22.57;;;17.83;;
9972;SDS011;5027;53.560;10.062;2024-02-28T12:26:22;20.80;;;15.90;;
9972;SDS011;5027;53.560;10.062;2024-02-28T12:28:49;20.27;;;17.90;;
9972;SDS011;5027;53.560;10.062;2024-02-28T12:31:16;24.00;;;17.90;;
9972;SDS011;5027;53.560;10.062;2024-02-28T12:33:42;21.67;;;17.90;;
9972;SDS011;5027;53.560;10.062;2024-02-28T12:36:09;20.30;;;17.60;;
9972;SDS011;5027;53.560;10.062;2024-02-28T12:38:36;21.93;;;17.30;;
9972;SDS011;5027;53.560;10.062;2024-02-28T12:41:03;20.93;;;18.13;;
9972;SDS011;5027;53.560;10.062;2024-02-28T12:43:30;24.70;;;18.30;;
9972;SDS011;5027;53.560;10.062;2024-02-28T12:45:58;23.33;;;18.13;;
9972;SDS011;5027;53.560;10.062;2024-02-28T12:48:25;20.47;;;18.37;;
9972;SDS011;5027;53.560;10.062;2024-02-28T12:50:52;22.90;;;17.60;;
9972;SDS011;5027;53.560;10.062;2024-02-28T12:53:19;19.27;;;17.20;;
9972;SDS011;5027;53.560;10.062;2024-02-28T12:55:46;23.17;;;18.13;;
9972;SDS011;5027;53.560;10.062;2024-02-28T12:58:12;21.83;;;17.77;;
9972;SDS011;5027;53.560;10.062;2024-02-28T13:00:39;21.23;;;17.47;;
9972;SDS011;5027;53.560;10.062;2024-02-28T13:03:06;21.53;;;17.47;;
9972;SDS011;5027;53.560;10.062;2024-02-28T13:05:33;20.67;;;16.40;;
9972;SDS011;5027;53.560;10.062;2024-02-28T13:07:59;19.40;;;17.40;;
9972;SDS011;5027;53.560;10.062;2024-02-28T13:10:26;20.13;;;17.40;;
9972;SDS011;5027;53.560;10.062;2024-02-28T13:12:53;21.13;;;17.60;;
9972;SDS011;5027;53.560;10.062;2024-02-28T13:15:20;19.87;;;17.07;;
9972;SDS011;5027;53.560;10.062;2024-02-28T13:17:47;20.23;;;17.00;;
9972;SDS011;5027;53.560;10.062;2024-02-28T13:20:16;19.00;;;17.00;;
9972;SDS011;5027;53.560;10.062;2024-02-28T13:22:43;24.53;;;17.70;;
9972;SDS011;5027;53.560;10.062;2024-02-28T13:25:11;13.93;;;12.43;;
9972;SDS011;5027;53.560;10.062;2024-02-28T13:27:40;19.67;;;16.53;;
9972;SDS011;5027;53.560;10.062;2024-02-28T13:30:07;18.80;;;16.80;;
9972;SDS011;5027;53.560;10.062;2024-02-28T13:32:34;21.60;;;17.17;;
9972;SDS011;5027;53.560;10.062;2024-02-28T13:35:01;25.87;;;18.03;;
9972;SDS011;5027;53.560;10.062;2024-02-28T13:37:28;22.57;;;17.83;;
9972;SDS011;5027;53.560;10.062;2024-02-28T13:39:54;19.93;;;17.50;;
9972;SDS011;5027;53.560;10.062;2024-02-28T13:42:22;20.17;;;17.83;;
9972;SDS011;5027;53.560;10.062;2024-02-28T13:44:50;21.87;;;18.73;;
9972;SDS011;5027;53.560;10.062;2024-02-28T13:47:18;20.57;;;16.87;;
9972;SDS011;5027;53.560;10.062;2024-02-28T13:49:44;19.50;;;17.30;;
9972;SDS011;5027;53.560;10.062;2024-02-28T13:52:11;19.93;;;16.57;;
9972;SDS011;5027;53.560;10.062;2024-02-28T13:54:38;21.07;;;17.53;;
9972;SDS011;5027;53.560;10.062;2024-02-28T13:57:05;17.50;;;15.60;;
9972;SDS011;5027;53.560;10.062;2024-02-28T13:59:35;16.73;;;13.80;;
9972;SDS011;5027;53.560;10.062;2024-02-28T14:02:02;24.50;;;15.03;;
9972;SDS011;5027;53.560;10.062;2024-02-28T14:04:29;17.47;;;13.83;;
9972;SDS011;5027;53.560;10.062;2024-02-28T14:06:56;15.47;;;13.77;;
9972;SDS011;5027;53.560;10.062;2024-02-28T14:09:22;18.17;;;14.03;;
9972;SDS011;5027;53.560;10.062;2024-02-28T14:11:49;14.83;;;13.23;;
9972;SDS011;5027;53.560;10.062;2024-02-28T14:14:16;19.67;;;14.53;;
9972;SDS011;5027;53.560;10.062;2024-02-28T14:16:43;17.40;;;13.20;;
9972;SDS011;5027;53.560;10.062;2024-02-28T14:19:10;19.03;;;14.33;;
9972;SDS011;5027;53.560;10.062;2024-02-28T14:21:37;20.00;;;14.47;;
9972;SDS011;5027;53.560;10.062;2024-02-28T14:24:04;19.70;;;14.87;;
9972;SDS011;5027;53.560;10.062;2024-02-28T14:26:30;18.07;;;14.13;;
9972;SDS011;5027;53.560;10.062;2024-02-28T14:28:57;16.43;;;14.13;;
9972;SDS011;5027;53.560;10.062;2024-02-28T14:31:24;23.40;;;13.47;;
9972;SDS011;5027;53.560;10.062;2024-02-28T14:33:51;20.77;;;13.57;;
9972;SDS011;5027;53.560;10.062;2024-02-28T14:36:18;16.40;;;13.47;;